Time;durP1;ratioP1;P1;durP2;ratioP2;P2;SDS_P1;SDS_P2;PMS_P1;PMS_P2;Temp;Humidity;BMP_temperature;BMP_pressure;BME280_temperature;BME280_humidity;BME280_pressure;Samples;Min_cycle;Max_cycle;Signal;HPM_P1;HPM_P2
2021/10/03 00:00:24;;;;;;;5.60;3.83;;;14.90;99.90;;;;;;5056030;28;20504;-78
2021/10/03 00:02:53;;;;;;;1.97;1.73;;;14.90;99.90;;;;;;5057130;28;20518;-78
2021/10/03 00:05:23;;;;;;;2.13;2.03;;;14.90;99.90;;;;;;5041643;28;20541;-78
2021/10/03 00:07:55;;;;;;;2.30;2.10;;;15.00;99.90;;;;;;5069713;28;20462;-78
2021/10/03 00:10:27;;;;;;;5.30;3.40;;;15.00;99.90;;;;;;5063876;28;20473;-79
2021/10/03 00:13:02;;;;;;;4.23;1.20;;;15.10;99.90;;;;;;5063168;28;20391;-78
2021/10/03 00:15:33;;;;;;;5.00;2.43;;;15.10;99.90;;;;;;5065637;28;20485;-79
2021/10/03 00:18:03;;;;;;;5.67;4.47;;;15.00;99.90;;;;;;5048817;28;20662;-79
2021/10/03 00:20:32;;;;;;;4.57;4.27;;;15.00;99.90;;;;;;5059851;28;20402;-80
2021/10/03 00:23:00;;;;;;;2.40;2.20;;;15.10;99.90;;;;;;5054767;28;20526;-81
2021/10/03 00:25:28;;;;;;;2.43;1.27;;;15.10;99.90;;;;;;5085954;22;20492;-79
2021/10/03 00:27:57;;;;;;;3.97;3.57;;;15.10;99.90;;;;;;5086802;28;20492;-79
2021/10/03 00:30:25;;;;;;;4.37;3.00;;;15.10;99.90;;;;;;5087389;28;20816;-79
2021/10/03 00:32:55;;;;;;;2.70;1.57;;;15.00;99.90;;;;;;5087967;28;20431;-79
2021/10/03 00:35:23;;;;;;;2.53;1.90;;;15.10;99.90;;;;;;5085786;28;20493;-80
2021/10/03 00:37:51;;;;;;;2.30;2.20;;;15.00;99.90;;;;;;5088195;28;20397;-78
2021/10/03 00:40:19;;;;;;;3.53;2.73;;;15.00;99.90;;;;;;5087733;28;20385;-79
2021/10/03 00:42:48;;;;;;;5.10;2.10;;;15.00;99.90;;;;;;5091029;28;20431;-78
2021/10/03 00:45:17;;;;;;;2.63;2.43;;;15.00;99.90;;;;;;5092929;28;20442;-77
2021/10/03 00:47:46;;;;;;;3.10;2.03;;;15.00;99.90;;;;;;5088307;28;20477;-77
2021/10/03 00:50:16;;;;;;;5.23;2.83;;;15.00;99.90;;;;;;5092224;28;20911;-78
2021/10/03 00:52:46;;;;;;;5.17;4.63;;;15.00;99.90;;;;;;5093605;28;20418;-77
2021/10/03 00:55:17;;;;;;;2.77;2.20;;;15.00;99.90;;;;;;5092418;28;20485;-79
2021/10/03 00:57:47;;;;;;;2.37;2.17;;;15.10;99.90;;;;;;5093443;28;20396;-79
2021/10/03 01:00:16;;;;;;;2.37;1.73;;;15.10;99.90;;;;;;5091825;28;20717;-80
2021/10/03 01:02:45;;;;;;;1.87;1.60;;;15.00;99.90;;;;;;5091896;28;20418;-80
2021/10/03 01:05:15;;;;;;;2.33;2.13;;;15.00;99.90;;;;;;5090394;28;20440;-79
2021/10/03 01:07:43;;;;;;;3.37;1.97;;;14.90;99.90;;;;;;5089262;28;20492;-80
2021/10/03 01:10:14;;;;;;;4.27;3.60;;;14.90;99.90;;;;;;5091130;28;20413;-80
2021/10/03 01:12:42;;;;;;;2.20;2.00;;;14.90;99.90;;;;;;5088960;28;20476;-80
2021/10/03 01:15:11;;;;;;;3.03;1.70;;;14.80;99.90;;;;;;5092015;28;20474;-80
2021/10/03 01:17:39;;;;;;;3.80;2.10;;;14.80;99.90;;;;;;5092012;28;20403;-79
2021/10/03 01:20:09;;;;;;;3.73;2.53;;;14.80;99.90;;;;;;5089133;28;20481;-81
2021/10/03 01:22:39;;;;;;;2.17;1.97;;;14.70;99.90;;;;;;5091103;28;20657;-80
2021/10/03 01:25:08;;;;;;;2.00;1.80;;;14.70;99.90;;;;;;5090885;28;20449;-80
2021/10/03 01:27:37;;;;;;;3.23;3.03;;;14.60;99.90;;;;;;5091042;28;20835;-79
2021/10/03 01:30:08;;;;;;;1.73;1.63;;;14.70;99.90;;;;;;5091333;28;20426;-78
2021/10/03 01:32:37;;;;;;;2.70;2.50;;;14.70;99.90;;;;;;5090851;28;20465;-80
2021/10/03 01:35:07;;;;;;;2.37;1.43;;;14.70;99.90;;;;;;5090535;28;20419;-79
2021/10/03 01:37:35;;;;;;;2.90;1.47;;;14.80;99.90;;;;;;5089528;28;20494;-78
2021/10/03 01:40:07;;;;;;;1.57;1.23;;;14.80;99.90;;;;;;5088568;28;20498;-79
2021/10/03 01:42:36;;;;;;;2.40;1.70;;;14.80;99.90;;;;;;5090494;28;20403;-80
2021/10/03 01:45:06;;;;;;;3.40;2.47;;;14.80;99.90;;;;;;5091664;28;20472;-79
2021/10/03 01:47:35;;;;;;;2.77;1.90;;;14.80;99.90;;;;;;5092617;28;20454;-79
2021/10/03 01:50:04;;;;;;;4.07;3.30;;;14.80;99.90;;;;;;5094892;28;20393;-79
2021/10/03 01:52:32;;;;;;;4.63;2.30;;;14.70;99.90;;;;;;5092633;28;20393;-79
2021/10/03 01:55:01;;;;;;;2.03;1.83;;;14.70;99.90;;;;;;5092275;28;20499;-77
2021/10/03 01:57:31;;;;;;;1.20;1.10;;;14.70;99.90;;;;;;5091349;28;20435;-79
2021/10/03 01:59:59;;;;;;;2.57;1.40;;;14.70;99.90;;;;;;5091063;28;20393;-78
2021/10/03 02:02:27;;;;;;;1.00;0.90;;;14.70;99.90;;;;;;5090788;28;20381;-79
2021/10/03 02:04:58;;;;;;;2.00;1.90;;;14.70;99.90;;;;;;5091953;28;20419;-79
2021/10/03 02:07:28;;;;;;;3.40;3.00;;;14.70;99.90;;;;;;5088189;28;20951;-78
2021/10/03 02:09:57;;;;;;;2.87;2.67;;;14.60;99.90;;;;;;5088380;28;20426;-79
2021/10/03 02:12:25;;;;;;;5.87;5.40;;;14.60;99.90;;;;;;5089508;28;20438;-78
2021/10/03 02:14:55;;;;;;;4.13;3.53;;;14.60;99.90;;;;;;5091509;28;20448;-78
2021/10/03 02:17:23;;;;;;;1.63;1.53;;;14.50;99.90;;;;;;5093778;28;20468;-76
2021/10/03 02:19:51;;;;;;;2.63;1.83;;;14.60;99.90;;;;;;5094538;28;20442;-78
2021/10/03 02:22:19;;;;;;;5.53;2.23;;;14.50;99.90;;;;;;5094465;28;20405;-79
2021/10/03 02:24:47;;;;;;;2.00;1.73;;;14.40;99.90;;;;;;5089034;28;20413;-80
2021/10/03 02:27:15;;;;;;;2.20;2.00;;;14.30;99.90;;;;;;5091467;28;20412;-80
2021/10/03 02:29:43;;;;;;;3.30;3.10;;;14.40;99.90;;;;;;5090834;28;20421;-79
2021/10/03 02:32:13;;;;;;;2.53;2.27;;;14.40;99.90;;;;;;5090928;28;20487;-79
2021/10/03 02:34:41;;;;;;;2.77;2.33;;;14.40;99.90;;;;;;5091188;28;20475;-79
2021/10/03 02:37:09;;;;;;;1.53;1.33;;;14.40;99.90;;;;;;5089231;28;20409;-79
2021/10/03 02:39:37;;;;;;;2.00;1.83;;;14.50;99.90;;;;;;5088116;28;20413;-80
2021/10/03 02:42:05;;;;;;;5.10;3.27;;;14.50;99.90;;;;;;5090646;28;20413;-80
2021/10/03 02:44:33;;;;;;;1.00;0.80;;;14.60;99.90;;;;;;5089286;28;20409;-79
2021/10/03 02:47:01;;;;;;;4.20;0.90;;;14.60;99.90;;;;;;5091259;28;20514;-79
2021/10/03 02:49:31;;;;;;;2.13;1.40;;;14.70;99.90;;;;;;5089164;28;20486;-79
2021/10/03 02:51:59;;;;;;;2.73;2.53;;;14.70;99.90;;;;;;5088503;28;20430;-80
2021/10/03 02:54:27;;;;;;;1.87;1.77;;;14.70;99.90;;;;;;5090316;28;20915;-79
2021/10/03 02:56:55;;;;;;;1.20;0.90;;;14.70;99.90;;;;;;5088619;28;20404;-78
2021/10/03 02:59:25;;;;;;;2.67;2.10;;;14.70;99.90;;;;;;5087934;28;20435;-78
2021/10/03 03:01:53;;;;;;;2.10;1.70;;;14.60;99.90;;;;;;5088856;28;20405;-79
2021/10/03 03:04:21;;;;;;;3.10;2.17;;;14.70;99.90;;;;;;5087934;28;20458;-80
2021/10/03 03:06:51;;;;;;;3.10;2.10;;;14.70;99.90;;;;;;5087679;28;20435;-79
2021/10/03 03:09:19;;;;;;;2.77;1.50;;;14.60;99.90;;;;;;5088711;28;20473;-80
2021/10/03 03:11:47;;;;;;;1.80;1.70;;;14.60;99.90;;;;;;5089430;28;20392;-80
2021/10/03 03:14:15;;;;;;;2.80;2.57;;;14.50;99.90;;;;;;5087129;28;20434;-79
2021/10/03 03:16:44;;;;;;;3.27;1.87;;;14.50;99.90;;;;;;5087912;28;20423;-79
2021/10/03 03:19:13;;;;;;;2.43;2.23;;;14.50;99.90;;;;;;5088736;28;20427;-78
2021/10/03 03:21:41;;;;;;;2.23;2.03;;;14.50;99.90;;;;;;5086791;28;20395;-80
2021/10/03 03:24:11;;;;;;;1.97;1.73;;;14.50;99.90;;;;;;5089162;28;20377;-79
2021/10/03 03:26:39;;;;;;;2.00;1.53;;;14.50;99.90;;;;;;5089136;28;20454;-79
2021/10/03 03:29:07;;;;;;;1.50;1.37;;;14.50;99.90;;;;;;5089501;28;20421;-79
2021/10/03 03:31:35;;;;;;;1.40;1.07;;;14.50;99.90;;;;;;5088453;28;20425;-80
2021/10/03 03:34:03;;;;;;;2.20;1.30;;;14.60;99.90;;;;;;5088405;28;20423;-79
2021/10/03 03:36:32;;;;;;;2.87;2.43;;;14.60;99.90;;;;;;5088414;28;20420;-79
2021/10/03 03:39:00;;;;;;;2.07;1.97;;;14.60;99.90;;;;;;5089072;28;20426;-80
2021/10/03 03:41:29;;;;;;;3.47;3.17;;;14.60;99.90;;;;;;5089671;28;20413;-79
2021/10/03 03:43:57;;;;;;;1.43;1.30;;;14.60;99.90;;;;;;5090753;28;20369;-78
2021/10/03 03:46:25;;;;;;;4.30;1.77;;;14.60;99.90;;;;;;5089078;28;20434;-79
2021/10/03 03:48:54;;;;;;;3.00;1.50;;;14.60;99.90;;;;;;5088651;28;20854;-77
2021/10/03 03:51:22;;;;;;;2.53;2.33;;;14.70;99.90;;;;;;5086333;28;20484;-79
2021/10/03 03:53:50;;;;;;;5.70;1.93;;;14.70;99.90;;;;;;5088912;28;20420;-80
2021/10/03 03:56:18;;;;;;;1.20;1.07;;;14.70;99.90;;;;;;5088367;28;20413;-79
2021/10/03 03:58:47;;;;;;;1.30;0.90;;;14.70;99.90;;;;;;5089493;28;20429;-79
2021/10/03 04:01:16;;;;;;;3.07;2.77;;;14.70;99.90;;;;;;5088421;28;20393;-78
2021/10/03 04:03:44;;;;;;;1.80;1.33;;;14.80;99.90;;;;;;5089454;28;20405;-79
2021/10/03 04:06:13;;;;;;;1.90;1.73;;;14.70;99.90;;;;;;5088362;28;20577;-80
2021/10/03 04:08:41;;;;;;;3.20;1.30;;;14.80;99.90;;;;;;5087284;28;20525;-79
2021/10/03 04:11:11;;;;;;;6.63;1.60;;;14.80;99.90;;;;;;5087974;28;20413;-79
2021/10/03 04:13:39;;;;;;;1.87;1.07;;;14.70;99.90;;;;;;5088586;28;20449;-81
2021/10/03 04:16:09;;;;;;;2.27;2.17;;;14.70;99.90;;;;;;5088952;28;20417;-78
2021/10/03 04:18:37;;;;;;;2.40;1.47;;;14.70;99.90;;;;;;5088401;28;20667;-80
2021/10/03 04:21:06;;;;;;;1.40;1.30;;;14.70;99.90;;;;;;5091429;28;20380;-78
2021/10/03 04:23:37;;;;;;;1.80;1.63;;;14.70;99.90;;;;;;5095850;28;20391;-78
2021/10/03 04:26:06;;;;;;;2.87;2.67;;;14.70;99.90;;;;;;5096127;28;20453;-78
2021/10/03 04:28:34;;;;;;;1.70;1.30;;;14.60;99.90;;;;;;5096999;28;20498;-79
2021/10/03 04:31:03;;;;;;;1.50;1.27;;;14.60;99.90;;;;;;5097002;28;20414;-78
2021/10/03 04:33:32;;;;;;;3.40;2.00;;;14.60;99.90;;;;;;5100646;28;20377;-77
2021/10/03 04:36:00;;;;;;;4.00;1.60;;;14.60;99.90;;;;;;5100511;28;20425;-78
2021/10/03 04:38:28;;;;;;;5.40;2.57;;;14.60;99.90;;;;;;5100960;28;20393;-77
2021/10/03 04:40:56;;;;;;;1.83;1.53;;;14.60;99.90;;;;;;5100179;28;20389;-78
2021/10/03 04:43:24;;;;;;;2.67;1.70;;;14.60;99.90;;;;;;5100671;28;20411;-79
2021/10/03 04:45:52;;;;;;;3.33;2.33;;;14.50;99.90;;;;;;5100626;28;20458;-78
2021/10/03 04:48:21;;;;;;;2.90;1.97;;;14.50;99.90;;;;;;5100829;28;20385;-78
2021/10/03 04:50:50;;;;;;;6.23;1.30;;;14.50;99.90;;;;;;5100366;28;20447;-77
2021/10/03 04:53:18;;;;;;;2.07;1.67;;;14.50;99.90;;;;;;5097550;28;20393;-79
2021/10/03 04:55:46;;;;;;;2.03;1.57;;;14.50;99.90;;;;;;5089844;28;20416;-79
2021/10/03 04:58:14;;;;;;;1.57;1.43;;;14.50;99.90;;;;;;5091281;28;20412;-79
2021/10/03 05:00:42;;;;;;;2.80;2.00;;;14.50;99.90;;;;;;5091507;28;20428;-79
2021/10/03 05:03:11;;;;;;;2.57;2.40;;;14.50;99.90;;;;;;5091520;28;20414;-79
2021/10/03 05:05:39;;;;;;;1.80;1.70;;;14.50;99.90;;;;;;5090420;28;20446;-80
2021/10/03 05:08:12;;;;;;;1.50;1.40;;;14.50;99.90;;;;;;5089517;28;20422;-79
2021/10/03 05:10:43;;;;;;;2.30;1.87;;;14.60;99.90;;;;;;5091464;28;20457;-79
2021/10/03 05:13:11;;;;;;;4.10;2.20;;;14.60;99.90;;;;;;5089697;28;20468;-80
2021/10/03 05:15:39;;;;;;;2.30;2.10;;;14.70;99.90;;;;;;5090496;28;20429;-79
2021/10/03 05:18:07;;;;;;;4.00;1.43;;;14.70;99.90;;;;;;5091262;28;20479;-80
2021/10/03 05:20:35;;;;;;;1.53;1.43;;;14.70;99.90;;;;;;5089633;28;20449;-80
2021/10/03 05:23:03;;;;;;;1.70;1.60;;;14.70;99.90;;;;;;5089193;28;20397;-78
2021/10/03 05:25:33;;;;;;;1.20;1.03;;;14.70;99.90;;;;;;5090346;28;20453;-79
2021/10/03 05:28:01;;;;;;;1.50;1.40;;;14.70;99.90;;;;;;5094762;28;20389;-78
2021/10/03 05:30:29;;;;;;;1.77;1.67;;;14.60;99.90;;;;;;5095615;28;20484;-79
2021/10/03 05:32:57;;;;;;;1.40;1.30;;;14.70;99.90;;;;;;5094464;28;20496;-78
2021/10/03 05:35:25;;;;;;;6.00;2.57;;;14.70;99.90;;;;;;5090077;28;20466;-79
2021/10/03 05:37:54;;;;;;;2.57;2.37;;;14.70;99.90;;;;;;5091675;28;20394;-78
2021/10/03 05:40:22;;;;;;;3.07;2.50;;;14.70;99.90;;;;;;5087997;28;20401;-79
2021/10/03 05:42:51;;;;;;;1.60;1.10;;;14.70;99.90;;;;;;5089806;28;20495;-81
2021/10/03 05:45:19;;;;;;;3.93;1.83;;;14.80;99.90;;;;;;5089309;28;20429;-80
2021/10/03 05:47:47;;;;;;;1.27;0.93;;;14.80;99.90;;;;;;5090471;28;20419;-79
2021/10/03 05:50:16;;;;;;;2.70;1.57;;;14.80;99.90;;;;;;5088974;28;20440;-82
2021/10/03 05:52:44;;;;;;;1.90;1.13;;;14.70;99.90;;;;;;5090580;28;20419;-79
2021/10/03 05:55:12;;;;;;;1.73;1.30;;;14.90;99.90;;;;;;5088885;28;20876;-78
2021/10/03 05:57:40;;;;;;;2.33;1.20;;;15.00;99.90;;;;;;5090170;28;20423;-79
2021/10/03 06:00:11;;;;;;;4.13;3.73;;;15.00;99.90;;;;;;5089122;28;20774;-79
2021/10/03 06:02:39;;;;;;;2.17;1.90;;;15.00;99.90;;;;;;5088649;28;20516;-78
2021/10/03 06:05:08;;;;;;;2.17;2.00;;;15.00;99.90;;;;;;5087324;28;20977;-80
2021/10/03 06:07:37;;;;;;;4.33;3.00;;;15.00;99.90;;;;;;5087771;28;20379;-79
2021/10/03 06:10:07;;;;;;;2.90;1.63;;;14.90;99.90;;;;;;5087333;28;20469;-79
2021/10/03 06:12:35;;;;;;;2.70;2.00;;;15.00;99.90;;;;;;5084458;28;20401;-79
2021/10/03 06:15:04;;;;;;;1.90;1.73;;;15.00;99.90;;;;;;5082653;28;20468;-80
2021/10/03 06:17:34;;;;;;;2.17;2.07;;;15.00;99.90;;;;;;5085073;28;20397;-80
2021/10/03 06:20:02;;;;;;;4.13;2.60;;;15.00;99.90;;;;;;5085724;28;20473;-79
2021/10/03 06:22:30;;;;;;;2.60;2.20;;;15.00;99.90;;;;;;5088358;28;20430;-79
2021/10/03 06:24:58;;;;;;;3.27;2.23;;;15.10;99.90;;;;;;5117959;22;20450;-80
2021/10/03 06:27:26;;;;;;;3.57;3.27;;;14.90;99.90;;;;;;5066443;28;20447;-81
2021/10/03 06:29:54;;;;;;;1.70;1.60;;;15.10;99.90;;;;;;5062118;28;20425;-80
2021/10/03 06:32:22;;;;;;;1.77;1.60;;;15.20;99.90;;;;;;5057962;28;20756;-80
2021/10/03 06:34:52;;;;;;;2.07;1.37;;;15.20;99.90;;;;;;5060073;28;20500;-80
2021/10/03 06:37:20;;;;;;;2.97;2.77;;;15.30;99.90;;;;;;5058688;28;20485;-81
2021/10/03 06:39:48;;;;;;;3.20;2.90;;;15.30;99.90;;;;;;5061567;28;20408;-81
2021/10/03 06:42:17;;;;;;;3.90;3.60;;;15.40;99.90;;;;;;5071076;28;20423;-81
2021/10/03 06:44:45;;;;;;;1.60;1.50;;;15.50;99.90;;;;;;5069958;28;20941;-80
2021/10/03 06:47:13;;;;;;;3.30;2.60;;;15.60;99.90;;;;;;5069599;28;20386;-80
2021/10/03 06:49:42;;;;;;;3.13;2.70;;;15.60;99.90;;;;;;5064221;28;20426;-82
2021/10/03 06:52:12;;;;;;;2.80;1.90;;;15.80;99.90;;;;;;5059267;28;20803;-79
2021/10/03 06:54:40;;;;;;;1.67;1.50;;;15.90;99.90;;;;;;5062460;28;20462;-77
2021/10/03 06:57:09;;;;;;;2.30;2.10;;;16.00;99.90;;;;;;5066223;28;20421;-78
2021/10/03 06:59:37;;;;;;;1.27;1.17;;;15.90;99.90;;;;;;5067500;28;20415;-78
2021/10/03 07:02:15;;;;;;;3.30;3.00;;;15.90;99.90;;;;;;5064766;28;20435;-77
2021/10/03 07:04:44;;;;;;;3.07;2.37;;;16.00;99.90;;;;;;5057708;28;20493;-78
2021/10/03 07:07:13;;;;;;;2.20;2.00;;;16.00;99.90;;;;;;5060300;28;20410;-80
2021/10/03 07:09:42;;;;;;;1.90;1.70;;;16.00;99.90;;;;;;5057587;28;20477;-80
2021/10/03 07:12:10;;;;;;;2.80;2.17;;;16.00;99.90;;;;;;5057130;28;20410;-79
2021/10/03 07:14:38;;;;;;;3.83;2.43;;;15.90;99.90;;;;;;5057200;28;20427;-81
2021/10/03 07:17:06;;;;;;;2.17;1.60;;;15.90;99.90;;;;;;5056961;28;20524;-80
2021/10/03 07:19:35;;;;;;;3.13;2.80;;;15.90;99.90;;;;;;5058030;28;20777;-80
2021/10/03 07:22:03;;;;;;;1.93;1.80;;;16.00;99.90;;;;;;5058002;28;20415;-81
2021/10/03 07:24:33;;;;;;;2.03;1.90;;;16.20;99.90;;;;;;5060175;28;20441;-81
2021/10/03 07:27:02;;;;;;;3.20;2.90;;;16.20;99.90;;;;;;5057791;28;20445;-80
2021/10/03 07:29:32;;;;;;;1.97;1.60;;;16.30;99.90;;;;;;5058473;28;20422;-81
2021/10/03 07:32:00;;;;;;;2.47;1.67;;;16.20;99.90;;;;;;5060167;28;20462;-81
2021/10/03 07:34:29;;;;;;;2.60;2.40;;;16.20;99.90;;;;;;5062413;28;20402;-78
2021/10/03 07:36:58;;;;;;;2.93;2.53;;;16.20;99.90;;;;;;5069054;28;20438;-82
2021/10/03 07:39:26;;;;;;;1.70;1.57;;;16.20;99.90;;;;;;5066439;28;20402;-81
2021/10/03 07:41:56;;;;;;;2.60;2.40;;;16.40;99.90;;;;;;5067203;28;20378;-78
2021/10/03 07:44:25;;;;;;;2.07;1.87;;;16.50;99.90;;;;;;5069372;28;20427;-78
2021/10/03 07:46:53;;;;;;;2.30;2.10;;;16.60;99.90;;;;;;5065334;28;20441;-80
2021/10/03 07:49:21;;;;;;;3.33;3.03;;;16.60;99.90;;;;;;5065657;28;20466;-77
2021/10/03 07:51:50;;;;;;;2.90;2.60;;;16.80;99.90;;;;;;5063900;28;20463;-79
2021/10/03 07:54:18;;;;;;;2.47;2.27;;;16.90;99.90;;;;;;5056940;28;20439;-80
2021/10/03 07:56:47;;;;;;;3.37;2.73;;;17.00;99.90;;;;;;5057410;28;21187;-81
2021/10/03 07:59:16;;;;;;;2.10;1.93;;;17.00;99.90;;;;;;5058741;28;20419;-78
2021/10/03 08:01:45;;;;;;;4.70;2.50;;;17.00;99.90;;;;;;5055971;28;20471;-80
2021/10/03 08:04:13;;;;;;;1.77;1.67;;;16.90;99.90;;;;;;5058475;28;20417;-81
2021/10/03 08:06:41;;;;;;;3.90;3.10;;;17.00;99.90;;;;;;5054989;28;20459;-77
2021/10/03 08:09:09;;;;;;;2.10;1.50;;;16.90;99.90;;;;;;5054640;28;20435;-79
2021/10/03 08:11:38;;;;;;;2.97;2.73;;;16.70;99.90;;;;;;5054194;28;20485;-78
2021/10/03 08:14:07;;;;;;;2.10;1.90;;;16.60;99.90;;;;;;5068666;28;20429;-80
2021/10/03 08:16:36;;;;;;;2.33;1.53;;;16.80;99.90;;;;;;5071369;28;20438;-75
2021/10/03 08:19:05;;;;;;;3.10;2.50;;;16.90;99.90;;;;;;5070136;28;20497;-81
2021/10/03 08:21:33;;;;;;;2.20;1.83;;;16.90;99.90;;;;;;5070717;28;20505;-80
2021/10/03 08:24:01;;;;;;;2.30;2.10;;;17.00;99.90;;;;;;5070502;28;20393;-81
2021/10/03 08:26:29;;;;;;;2.80;2.60;;;17.10;99.90;;;;;;5070711;28;20477;-80
2021/10/03 08:28:58;;;;;;;2.43;1.50;;;17.20;99.90;;;;;;5060701;28;20424;-81
2021/10/03 08:31:26;;;;;;;3.30;3.00;;;17.20;99.90;;;;;;5059730;28;20444;-80
2021/10/03 08:33:57;;;;;;;1.50;1.40;;;17.10;99.90;;;;;;5058617;28;20475;-81
2021/10/03 08:36:26;;;;;;;4.13;2.03;;;17.10;99.90;;;;;;5059781;28;20436;-80
2021/10/03 08:38:55;;;;;;;1.50;1.30;;;17.20;99.90;;;;;;5057792;28;20418;-79
2021/10/03 08:41:23;;;;;;;4.50;1.60;;;17.30;99.90;;;;;;5058712;28;20398;-81
2021/10/03 08:43:53;;;;;;;1.83;1.53;;;17.40;99.90;;;;;;5058763;28;20397;-81
2021/10/03 08:46:23;;;;;;;2.87;2.67;;;17.40;99.90;;;;;;5057604;28;20478;-81
2021/10/03 08:48:52;;;;;;;3.20;2.20;;;17.60;99.90;;;;;;5058928;28;20402;-81
2021/10/03 08:51:22;;;;;;;2.30;2.00;;;17.60;99.90;;;;;;5060059;28;20448;-81
2021/10/03 08:53:51;;;;;;;3.30;3.00;;;17.60;99.90;;;;;;5039803;28;20395;-80
2021/10/03 08:56:21;;;;;;;2.60;1.73;;;17.60;99.90;;;;;;5038858;28;20423;-82
2021/10/03 08:58:51;;;;;;;4.07;2.10;;;17.70;99.90;;;;;;5038481;28;20740;-81
2021/10/03 09:01:20;;;;;;;2.90;1.63;;;17.90;99.90;;;;;;5037835;28;20425;-81
2021/10/03 09:03:49;;;;;;;3.00;2.80;;;18.10;99.90;;;;;;5039029;28;20410;-78
2021/10/03 09:06:18;;;;;;;2.70;2.30;;;18.50;99.90;;;;;;5044960;28;20472;-79
2021/10/03 09:08:49;;;;;;;3.23;2.93;;;18.70;99.90;;;;;;5045541;28;20474;-81
2021/10/03 09:11:18;;;;;;;2.80;2.60;;;18.80;99.90;;;;;;5038959;28;20494;-79
2021/10/03 09:13:49;;;;;;;2.17;1.70;;;19.00;99.90;;;;;;5039179;28;20428;-80
2021/10/03 09:16:21;;;;;;;2.77;2.37;;;19.10;99.90;;;;;;5038931;28;20557;-80
2021/10/03 09:18:53;;;;;;;2.10;1.97;;;19.00;99.90;;;;;;5044576;28;20456;-80
2021/10/03 09:21:42;;;;;;;2.00;1.80;;;18.90;99.90;;;;;;5047920;28;20419;-78
2021/10/03 09:24:15;;;;;;;2.70;2.50;;;18.90;99.90;;;;;;5047538;28;20428;-80
2021/10/03 09:26:56;;;;;;;2.83;2.50;;;18.70;99.90;;;;;;5048567;28;20450;-80
2021/10/03 09:29:27;;;;;;;2.20;1.60;;;18.80;99.90;;;;;;5067109;28;20398;-80
2021/10/03 09:32:06;;;;;;;2.90;2.60;;;18.70;99.90;;;;;;5068740;28;20438;-80
2021/10/03 09:34:34;;;;;;;3.57;2.40;;;18.50;99.90;;;;;;5067267;28;20382;-81
2021/10/03 09:37:17;;;;;;;4.00;3.00;;;18.40;99.90;;;;;;5060277;28;20438;-80
2021/10/03 09:39:49;;;;;;;2.43;1.83;;;18.50;99.90;;;;;;5063162;28;20402;-81
2021/10/03 09:42:18;;;;;;;3.33;2.80;;;18.50;99.90;;;;;;5059172;28;20437;-79
2021/10/03 09:45:05;;;;;;;1.60;1.43;;;18.60;99.90;;;;;;5063275;28;20837;-81
2021/10/03 09:47:33;;;;;;;2.23;1.57;;;18.60;99.90;;;;;;5062714;28;20439;-81
2021/10/03 09:50:03;;;;;;;3.30;3.00;;;18.80;99.90;;;;;;5063847;28;20423;-81
2021/10/03 09:52:33;;;;;;;2.50;2.30;;;18.90;99.90;;;;;;5062934;28;20441;-81
2021/10/03 09:55:04;;;;;;;3.20;2.33;;;19.00;99.90;;;;;;5063495;28;20386;-81
2021/10/03 09:57:32;;;;;;;2.00;1.60;;;19.20;99.90;;;;;;5062548;28;20436;-78
2021/10/03 10:00:02;;;;;;;2.27;1.60;;;19.30;99.90;;;;;;5064801;28;20390;-79
2021/10/03 10:02:32;;;;;;;2.37;2.17;;;19.50;99.90;;;;;;5073962;28;20391;-77
2021/10/03 10:05:00;;;;;;;2.57;1.90;;;19.40;99.90;;;;;;5074698;28;20506;-78
2021/10/03 10:07:30;;;;;;;2.27;2.07;;;19.40;99.90;;;;;;5075073;28;20490;-77
2021/10/03 10:09:59;;;;;;;3.40;2.30;;;19.50;99.90;;;;;;5074677;28;20881;-80
2021/10/03 10:12:34;;;;;;;3.67;2.43;;;19.60;99.90;;;;;;5075156;28;20450;-77
2021/10/03 10:15:05;;;;;;;2.30;1.90;;;19.80;99.90;;;;;;5063291;28;20439;-82
2021/10/03 10:17:35;;;;;;;3.73;3.43;;;19.80;99.90;;;;;;5066311;28;20393;-78
2021/10/03 10:20:26;;;;;;;2.73;2.20;;;20.00;99.90;;;;;;5070588;28;20436;-78
2021/10/03 10:22:56;;;;;;;1.80;1.60;;;20.00;99.90;;;;;;5071572;28;20423;-77
2021/10/03 10:25:39;;;;;;;3.13;2.90;;;20.20;99.90;;;;;;5071283;28;20469;-77
2021/10/03 10:28:11;;;;;;;3.67;1.80;;;20.30;99.90;;;;;;5072073;28;20447;-78
2021/10/03 10:31:05;;;;;;;3.00;2.40;;;20.60;99.90;;;;;;5072826;28;20430;-77
2021/10/03 10:34:10;;;;;;;2.97;2.53;;;20.90;99.90;;;;;;5070537;28;20572;-78
2021/10/03 10:36:54;;;;;;;3.93;2.60;;;21.00;99.90;;;;;;5070672;28;20476;-79
2021/10/03 10:39:28;;;;;;;2.77;2.40;;;21.10;99.90;;;;;;5070848;28;20458;-77
2021/10/03 10:42:02;;;;;;;2.37;2.17;;;21.30;99.90;;;;;;5072696;28;20426;-80
2021/10/03 10:44:41;;;;;;;3.23;1.87;;;21.40;99.90;;;;;;5073841;28;20424;-78
2021/10/03 10:47:15;;;;;;;2.93;2.63;;;21.40;99.90;;;;;;5072479;28;20443;-77
2021/10/03 10:49:47;;;;;;;2.27;1.87;;;21.50;99.90;;;;;;5073204;28;20449;-78
2021/10/03 10:52:40;;;;;;;3.30;2.33;;;21.40;99.90;;;;;;5072375;28;20437;-79
2021/10/03 10:55:37;;;;;;;2.40;1.90;;;21.30;99.90;;;;;;5071856;28;20418;-79
2021/10/03 10:58:16;;;;;;;2.83;2.47;;;21.70;99.90;;;;;;5035140;28;20419;-79
2021/10/03 11:01:11;;;;;;;3.03;2.30;;;21.70;99.90;;;;;;5058375;28;20410;-80
2021/10/03 11:03:56;;;;;;;2.73;2.53;;;21.80;99.90;;;;;;5058788;28;20451;-80
2021/10/03 11:07:01;;;;;;;2.10;1.83;;;21.70;99.90;;;;;;5059575;28;20462;-77
2021/10/03 11:09:54;;;;;;;4.13;2.73;;;21.70;99.90;;;;;;5059147;28;20446;-80
2021/10/03 11:12:36;;;;;;;2.63;1.77;;;21.60;99.90;;;;;;5058949;28;20429;-79
2021/10/03 11:15:27;;;;;;;2.00;1.63;;;21.90;99.90;;;;;;5058607;28;20809;-80
2021/10/03 11:18:03;;;;;;;2.33;2.10;;;21.90;99.90;;;;;;5059704;28;20462;-80
2021/10/03 11:20:33;;;;;;;3.77;2.63;;;22.00;99.90;;;;;;5058310;28;20428;-79
2021/10/03 11:23:04;;;;;;;2.50;2.30;;;22.10;99.90;;;;;;5060757;28;20438;-80
2021/10/03 11:25:36;;;;;;;1.50;1.10;;;22.30;99.90;;;;;;5059188;28;20766;-81
2021/10/03 11:28:07;;;;;;;2.67;2.47;;;22.40;99.90;;;;;;5058421;28;20483;-78
2021/10/03 11:30:37;;;;;;;6.97;3.47;;;22.60;99.90;;;;;;5059575;28;20485;-80
2021/10/03 11:33:13;;;;;;;2.63;2.40;;;22.90;99.90;;;;;;5059707;28;20475;-79
2021/10/03 11:35:41;;;;;;;3.57;2.60;;;23.20;99.90;;;;;;5090872;28;20562;-79
2021/10/03 11:38:11;;;;;;;2.50;1.93;;;23.20;99.90;;;;;;5059904;28;20868;-80
2021/10/03 11:40:49;;;;;;;6.63;2.03;;;23.10;99.90;;;;;;5061658;28;20481;-81
2021/10/03 11:43:32;;;;;;;3.60;2.27;;;23.30;99.90;;;;;;5060499;28;20415;-81
2021/10/03 11:46:10;;;;;;;2.23;2.00;;;23.40;99.90;;;;;;5059520;28;20466;-80
2021/10/03 11:48:41;;;;;;;2.80;2.03;;;23.50;99.90;;;;;;5090194;28;20522;-79
2021/10/03 11:51:09;;;;;;;2.17;1.97;;;23.70;99.90;;;;;;5060003;28;20422;-81
2021/10/03 11:53:47;;;;;;;2.23;2.03;;;23.80;99.90;;;;;;5063321;28;20438;-81
2021/10/03 11:56:19;;;;;;;2.57;2.33;;;23.90;99.90;;;;;;5062526;28;20442;-81
2021/10/03 11:58:52;;;;;;;2.90;2.10;;;23.90;99.90;;;;;;5067415;28;20415;-78
2021/10/03 12:01:29;;;;;;;3.13;2.83;;;24.00;99.90;;;;;;5070344;28;20428;-81
2021/10/03 12:03:58;;;;;;;2.20;2.00;;;24.10;99.90;;;;;;5071146;28;20458;-79
2021/10/03 12:06:30;;;;;;;3.00;1.77;;;24.00;99.90;;;;;;5069006;28;20454;-83
2021/10/03 12:08:59;;;;;;;2.80;2.50;;;23.70;99.90;;;;;;5061533;28;20415;-80
2021/10/03 12:11:29;;;;;;;3.07;2.53;;;23.50;99.90;;;;;;5053832;28;20431;-80
2021/10/03 12:14:00;;;;;;;2.13;1.93;;;23.50;99.90;;;;;;5073829;28;20510;-80
2021/10/03 12:16:28;;;;;;;3.53;2.57;;;23.50;99.90;;;;;;5072254;28;21055;-82
2021/10/03 12:19:04;;;;;;;2.80;1.97;;;23.50;99.90;;;;;;5065298;28;20414;-80
2021/10/03 12:21:39;;;;;;;3.53;2.70;;;23.50;99.90;;;;;;5068295;28;20502;-81
2021/10/03 12:24:09;;;;;;;2.50;2.07;;;23.50;99.90;;;;;;5065246;28;20443;-79
2021/10/03 12:26:41;;;;;;;2.97;2.57;;;23.50;99.90;;;;;;5067959;22;20493;-77
2021/10/03 12:29:20;;;;;;;2.50;2.30;;;23.60;99.90;;;;;;5035858;28;20567;-79
2021/10/03 12:31:56;;;;;;;2.73;2.43;;;23.70;99.90;;;;;;5036813;28;20440;-79
2021/10/03 12:34:40;;;;;;;4.03;3.10;;;23.80;99.90;;;;;;5037468;28;20510;-79
2021/10/03 12:37:32;;;;;;;2.47;2.03;;;23.80;99.90;;;;;;5037900;28;20434;-79
2021/10/03 12:40:01;;;;;;;2.27;2.07;;;24.10;99.90;;;;;;5037887;28;20416;-79
2021/10/03 12:42:31;;;;;;;4.33;2.60;;;24.40;99.90;;;;;;5037211;28;20459;-79
2021/10/03 12:45:01;;;;;;;4.37;3.27;;;24.60;99.90;;;;;;5038733;28;20439;-77
2021/10/03 12:47:30;;;;;;;4.10;3.10;;;24.70;99.90;;;;;;5036913;28;20428;-78
2021/10/03 12:49:59;;;;;;;2.60;2.20;;;24.80;99.90;;;;;;5036783;28;20402;-78
2021/10/03 12:52:29;;;;;;;2.40;2.10;;;24.90;99.90;;;;;;5035599;28;20491;-79
2021/10/03 12:54:57;;;;;;;2.93;2.00;;;24.80;99.90;;;;;;5041232;28;20498;-77
2021/10/03 12:57:25;;;;;;;4.27;2.47;;;24.80;99.90;;;;;;5046776;28;20423;-78
2021/10/03 12:59:53;;;;;;;5.63;2.43;;;24.60;99.90;;;;;;5049525;28;20470;-76
2021/10/03 13:02:24;;;;;;;2.30;2.10;;;24.60;99.90;;;;;;5050819;28;20416;-77
2021/10/03 13:05:07;;;;;;;3.93;3.53;;;24.50;99.90;;;;;;5042191;28;20765;-79